createdAt,value
2018-12-12T00:01:56.977Z,85.55
2018-12-12T00:04:27.741Z,85.12
2018-12-12T00:06:56.700Z,84.90
2018-12-12T00:09:25.519Z,84.41
2018-12-12T00:11:54.481Z,85.41
2018-12-12T00:14:23.364Z,85.92
2018-12-12T00:16:52.199Z,85.52
2018-12-12T00:19:21.288Z,85.84
2018-12-12T00:21:50.154Z,85.52
2018-12-12T00:24:19.042Z,85.76
2018-12-12T00:26:47.924Z,85.70
2018-12-12T00:29:16.817Z,86.32
2018-12-12T00:31:45.708Z,85.66
2018-12-12T00:34:14.581Z,85.84
2018-12-12T00:36:43.495Z,86.08
2018-12-12T00:39:12.372Z,84.73
2018-12-12T00:41:41.213Z,85.97
2018-12-12T00:44:10.157Z,85.70
2018-12-12T00:46:39.254Z,84.95
2018-12-12T00:49:08.238Z,85.16
2018-12-12T00:51:37.320Z,85.24
2018-12-12T00:54:06.233Z,85.42
2018-12-12T00:56:35.048Z,85.97
2018-12-12T00:59:04.133Z,86.50
2018-12-12T01:01:32.976Z,85.25
2018-12-12T01:04:01.818Z,85.93
2018-12-12T01:06:30.636Z,86.16
2018-12-12T01:08:59.580Z,85.45
2018-12-12T01:11:33.790Z,85.84
2018-12-12T01:14:02.763Z,84.85
2018-12-12T01:16:31.669Z,84.68
2018-12-12T01:19:00.558Z,85.32
2018-12-12T01:21:30.696Z,84.95
2018-12-12T01:23:59.573Z,84.63
2018-12-12T01:26:28.472Z,84.53
2018-12-12T01:28:57.352Z,83.97
2018-12-12T01:31:26.228Z,85.01
2018-12-12T01:33:56.057Z,84.91
2018-12-12T01:36:25.157Z,84.82
2018-12-12T01:38:54.003Z,85.08
2018-12-12T01:41:22.830Z,85.51
2018-12-12T01:43:51.835Z,85.32
2018-12-12T01:46:20.709Z,85.02
2018-12-12T01:48:49.553Z,85.42
2018-12-12T01:51:18.388Z,85.07
2018-12-12T01:53:48.682Z,85.03
2018-12-12T01:56:17.607Z,84.67
2018-12-12T01:58:46.529Z,84.95
2018-12-12T02:01:15.352Z,85.04
2018-12-12T02:03:44.277Z,85.19
2018-12-12T02:06:13.164Z,85.24
2018-12-12T02:08:42.000Z,85.30
2018-12-12T02:11:10.868Z,84.64
2018-12-12T02:13:39.765Z,84.53
2018-12-12T02:16:09.501Z,84.97
2018-12-12T02:18:40.624Z,84.88
2018-12-12T02:21:09.548Z,84.89
2018-12-12T02:23:38.356Z,85.58
2018-12-12T02:26:07.261Z,85.69
2018-12-12T02:28:36.153Z,85.90
2018-12-12T02:31:04.968Z,85.53
2018-12-12T02:33:33.821Z,85.61
2018-12-12T02:36:02.816Z,85.72
2018-12-12T02:38:31.642Z,85.78
2018-12-12T02:41:00.606Z,86.00
2018-12-12T02:43:29.525Z,86.41
2018-12-12T02:45:58.355Z,86.43
2018-12-12T02:48:27.598Z,86.25
2018-12-12T02:50:56.482Z,86.35
2018-12-12T02:53:25.313Z,86.55
2018-12-12T02:55:54.128Z,86.25
2018-12-12T02:58:22.945Z,86.61
2018-12-12T03:00:51.820Z,85.91
2018-12-12T03:03:20.710Z,86.28
2018-12-12T03:05:49.601Z,86.18
2018-12-12T03:08:18.484Z,85.64
2018-12-12T03:10:47.510Z,86.02
2018-12-12T03:13:16.472Z,86.37
2018-12-12T03:15:45.825Z,85.93
2018-12-12T03:18:14.782Z,85.87
2018-12-12T03:20:43.652Z,85.76
2018-12-12T03:23:12.556Z,86.52
2018-12-12T03:25:41.441Z,85.64
2018-12-12T03:28:10.344Z,86.12
2018-12-12T03:30:39.158Z,86.50
2018-12-12T03:33:08.118Z,86.21
2018-12-12T03:35:37.114Z,85.96
2018-12-12T03:38:06.013Z,86.06
2018-12-12T03:40:35.785Z,86.56
2018-12-12T03:43:04.936Z,86.36
2018-12-12T03:45:33.790Z,86.48
2018-12-12T03:48:02.770Z,86.17
2018-12-12T03:50:31.669Z,86.00
2018-12-12T03:53:00.632Z,86.11
2018-12-12T03:55:29.559Z,86.49
2018-12-12T03:57:58.463Z,86.31
2018-12-12T04:00:27.334Z,85.64
2018-12-12T04:02:56.301Z,86.17
2018-12-12T04:05:25.074Z,86.40
2018-12-12T04:07:53.912Z,86.13
2018-12-12T04:10:22.793Z,86.07
2018-12-12T04:12:51.709Z,86.33
2018-12-12T04:15:20.681Z,86.34
2018-12-12T04:17:49.697Z,86.40
2018-12-12T04:20:18.565Z,86.98
2018-12-12T04:22:47.549Z,85.87
2018-12-12T04:25:17.070Z,85.81
2018-12-12T04:27:45.946Z,85.87
2018-12-12T04:30:14.953Z,85.87
2018-12-12T04:32:43.820Z,85.84
2018-12-12T04:35:12.628Z,85.40
2018-12-12T04:37:41.670Z,84.58
2018-12-12T04:40:10.509Z,85.35
2018-12-12T04:42:39.400Z,85.66
2018-12-12T04:45:08.429Z,85.24
2018-12-12T04:47:37.273Z,85.78
2018-12-12T04:50:06.585Z,85.70
2018-12-12T04:52:35.493Z,85.45
2018-12-12T04:55:04.575Z,86.03
2018-12-12T04:57:34.498Z,86.40
2018-12-12T05:00:03.686Z,86.44
2018-12-12T05:02:32.765Z,86.40
2018-12-12T05:05:01.655Z,86.38
2018-12-12T05:07:31.572Z,85.80
2018-12-12T05:10:00.469Z,86.13
2018-12-12T05:12:29.362Z,86.04
2018-12-12T05:14:58.413Z,85.92
2018-12-12T05:17:27.356Z,85.71
2018-12-12T05:19:56.245Z,86.35
2018-12-12T05:22:25.124Z,86.42
2018-12-12T05:24:54.069Z,86.11
2018-12-12T05:27:22.917Z,86.08
2018-12-12T05:29:51.785Z,85.99
2018-12-12T05:32:20.700Z,85.87
2018-12-12T05:34:49.591Z,85.93
2018-12-12T05:37:18.479Z,85.98
2018-12-12T05:39:47.428Z,86.05
2018-12-12T05:42:16.249Z,86.26
2018-12-12T05:44:45.145Z,85.74
2018-12-12T05:47:13.965Z,86.00
2018-12-12T05:49:42.883Z,85.60
2018-12-12T05:52:13.626Z,85.81
2018-12-12T05:54:42.564Z,86.40
2018-12-12T05:57:11.465Z,85.78
2018-12-12T05:59:40.322Z,86.10
2018-12-12T06:02:09.216Z,85.97
2018-12-12T06:04:38.088Z,85.72
2018-12-12T06:07:07.123Z,85.47
2018-12-12T06:09:35.981Z,85.89
2018-12-12T06:12:05.460Z,85.54
2018-12-12T06:14:34.390Z,86.26
2018-12-12T06:17:05.224Z,86.02
2018-12-12T06:19:34.316Z,85.75
2018-12-12T06:22:03.447Z,86.56
2018-12-12T06:24:32.481Z,86.28
2018-12-12T06:27:01.321Z,86.54
2018-12-12T06:29:30.200Z,86.44
2018-12-12T06:31:59.070Z,86.56
2018-12-12T06:34:28.037Z,86.12
2018-12-12T06:36:56.950Z,86.47
2018-12-12T06:39:25.986Z,86.43
2018-12-12T06:41:54.939Z,86.67
2018-12-12T06:44:24.349Z,86.38
2018-12-12T06:46:53.328Z,86.08
2018-12-12T06:49:22.156Z,86.69
2018-12-12T06:51:51.013Z,86.04
2018-12-12T06:54:20.009Z,86.33
2018-12-12T06:56:48.997Z,86.31
2018-12-12T06:59:17.896Z,86.38
2018-12-12T07:01:46.708Z,86.08
2018-12-12T07:04:15.634Z,85.38
2018-12-12T07:06:44.600Z,85.54
2018-12-12T07:09:13.456Z,85.84
2018-12-12T07:11:42.332Z,85.52
2018-12-12T07:14:11.222Z,86.10
2018-12-12T07:16:40.125Z,86.58
2018-12-12T07:19:09.005Z,85.91
2018-12-12T07:21:38.016Z,86.66
2018-12-12T07:24:06.838Z,85.80
2018-12-12T07:26:35.745Z,86.25
2018-12-12T07:29:04.773Z,86.93
2018-12-12T07:31:33.665Z,86.20
2018-12-12T07:34:02.558Z,86.55
2018-12-12T07:36:31.441Z,86.39
2018-12-12T07:39:00.341Z,86.66
2018-12-12T07:41:29.464Z,86.45
2018-12-12T07:44:00.269Z,85.58
2018-12-12T07:46:47.056Z,85.81
2018-12-12T07:49:21.802Z,85.73
2018-12-12T07:52:12.302Z,86.29
2018-12-12T07:54:41.356Z,85.69
2018-12-12T07:57:10.234Z,86.54
2018-12-12T07:59:39.092Z,85.29
2018-12-12T08:02:08.086Z,85.59
2018-12-12T08:04:36.898Z,84.91
2018-12-12T08:07:05.756Z,84.82
2018-12-12T08:09:35.854Z,84.34
2018-12-12T08:12:04.980Z,84.32
2018-12-12T08:14:34.009Z,84.29
2018-12-12T08:17:03.497Z,85.13
2018-12-12T08:19:32.350Z,85.26
2018-12-12T08:22:01.289Z,85.16
2018-12-12T08:24:30.129Z,85.74
2018-12-12T08:26:59.034Z,86.07
2018-12-12T08:29:27.857Z,85.72
2018-12-12T08:31:56.705Z,86.59
2018-12-12T08:34:26.921Z,86.05
2018-12-12T08:36:55.800Z,86.39
2018-12-12T08:39:24.704Z,86.63
2018-12-12T08:41:53.520Z,85.82
2018-12-12T08:44:22.357Z,85.78
2018-12-12T08:46:51.177Z,86.61
2018-12-12T08:49:20.062Z,85.50
2018-12-12T08:51:48.946Z,85.57
2018-12-12T08:54:17.838Z,85.51
2018-12-12T08:56:46.753Z,85.32
2018-12-12T08:59:15.628Z,84.67
2018-12-12T09:01:45.305Z,85.74
2018-12-12T09:04:14.226Z,85.21
2018-12-12T09:06:43.036Z,84.39
2018-12-12T09:09:12.933Z,85.14
2018-12-12T09:11:41.858Z,85.11
2018-12-12T09:14:10.781Z,85.17
2018-12-12T09:16:44.424Z,84.87
2018-12-12T09:19:13.397Z,85.07
2018-12-12T09:21:42.400Z,84.99
2018-12-12T09:24:11.216Z,84.98
2018-12-12T09:26:40.103Z,84.50
2018-12-12T09:29:08.956Z,84.13
2018-12-12T09:31:39.909Z,84.67
2018-12-12T09:34:10.781Z,83.97
2018-12-12T09:36:39.613Z,83.92
2018-12-12T09:39:08.631Z,83.77
2018-12-12T09:41:40.339Z,84.04
2018-12-12T09:44:09.208Z,83.20
2018-12-12T09:46:38.193Z,83.48
2018-12-12T09:49:08.137Z,82.79
2018-12-12T09:51:38.957Z,82.73
2018-12-12T09:54:09.741Z,82.13
2018-12-12T09:56:38.581Z,82.87
2018-12-12T09:59:07.525Z,82.57
2018-12-12T10:01:36.409Z,82.94
2018-12-12T10:04:06.053Z,83.10
2018-12-12T10:06:35.009Z,82.81
2018-12-12T10:09:05.928Z,82.76
2018-12-12T10:11:35.864Z,83.09
2018-12-12T10:14:04.864Z,82.69
2018-12-12T10:16:33.736Z,82.29
2018-12-12T10:19:02.640Z,82.01
2018-12-12T10:21:31.545Z,82.22
2018-12-12T10:24:00.424Z,81.49
2018-12-12T10:26:29.916Z,81.62
2018-12-12T10:28:58.900Z,81.94
2018-12-12T10:31:27.885Z,81.83
2018-12-12T10:33:56.766Z,81.12
2018-12-12T10:36:25.784Z,80.98
2018-12-12T10:38:54.896Z,81.51
2018-12-12T10:41:24.385Z,81.46
2018-12-12T10:43:53.384Z,81.09
2018-12-12T10:46:22.753Z,81.26
2018-12-12T10:48:52.192Z,80.85
2018-12-12T10:51:21.168Z,79.93
2018-12-12T10:53:50.074Z,79.78
2018-12-12T10:56:18.957Z,79.47
2018-12-12T10:58:47.854Z,79.35
2018-12-12T11:01:22.174Z,77.98
2018-12-12T11:03:51.045Z,77.68
2018-12-12T11:06:19.945Z,77.31
2018-12-12T11:08:48.826Z,77.86
2018-12-12T11:11:17.764Z,77.84
2018-12-12T11:13:46.624Z,77.00
2018-12-12T11:16:15.447Z,77.39
2018-12-12T11:18:44.392Z,76.62
2018-12-12T11:21:13.441Z,75.42
2018-12-12T11:23:42.405Z,74.19
2018-12-12T11:26:11.277Z,74.60
2018-12-12T11:28:40.169Z,74.71
2018-12-12T11:31:09.049Z,73.03
2018-12-12T11:33:37.945Z,73.01
2018-12-12T11:36:06.928Z,74.21
2018-12-12T11:38:35.839Z,74.02
2018-12-12T11:41:04.861Z,72.32
2018-12-12T11:43:33.721Z,71.84
2018-12-12T11:46:02.596Z,71.51
2018-12-12T11:48:31.500Z,70.58
2018-12-12T11:51:00.394Z,72.05
2018-12-12T11:53:29.385Z,70.70
2018-12-12T11:55:58.624Z,69.72
2018-12-12T11:58:27.435Z,68.85
2018-12-12T12:00:56.246Z,69.70
2018-12-12T12:03:25.148Z,67.95
2018-12-12T12:05:53.985Z,68.00
2018-12-12T12:08:22.830Z,66.67
2018-12-12T12:10:51.646Z,67.10
2018-12-12T12:13:22.548Z,67.24
2018-12-12T12:15:51.374Z,68.52
2018-12-12T12:18:20.337Z,67.12
2018-12-12T12:20:49.237Z,68.38
2018-12-12T12:23:18.146Z,68.51
2018-12-12T12:25:46.998Z,68.37
2018-12-12T12:28:16.248Z,69.04
2018-12-12T12:30:45.072Z,68.07
2018-12-12T12:33:13.964Z,67.15
2018-12-12T12:35:42.870Z,66.77
2018-12-12T12:38:11.745Z,67.78
2018-12-12T12:40:40.657Z,68.13
2018-12-12T12:43:09.529Z,67.43
2018-12-12T12:45:38.353Z,67.71
2018-12-12T12:48:07.261Z,68.40
2018-12-12T12:50:36.226Z,66.94
2018-12-12T12:53:05.105Z,67.92
2018-12-12T12:55:33.990Z,67.06
2018-12-12T12:58:02.990Z,66.95
2018-12-12T13:00:31.894Z,66.24
2018-12-12T13:03:00.760Z,67.27
2018-12-12T13:05:29.664Z,66.12
2018-12-12T13:07:58.502Z,65.30
2018-12-12T13:10:27.457Z,66.01
2018-12-12T13:12:56.569Z,66.22
2018-12-12T13:15:25.881Z,67.48
2018-12-12T13:17:54.717Z,65.49
2018-12-12T13:20:23.521Z,66.64
2018-12-12T13:22:52.394Z,66.80
2018-12-12T13:25:21.211Z,67.50
2018-12-12T13:27:50.082Z,66.53
2018-12-12T13:30:19.045Z,67.55
2018-12-12T13:32:47.971Z,67.44
2018-12-12T13:35:16.873Z,66.58
2018-12-12T13:37:45.737Z,66.82
2018-12-12T13:40:14.553Z,66.61
2018-12-12T13:42:43.420Z,68.52
2018-12-12T13:45:12.320Z,68.02
2018-12-12T13:47:41.204Z,67.47
2018-12-12T13:50:10.212Z,68.47
2018-12-12T13:52:39.218Z,67.33
2018-12-12T13:55:08.316Z,66.87
2018-12-12T13:57:37.144Z,66.53
2018-12-12T14:00:06.387Z,65.27
2018-12-12T14:02:35.264Z,66.58
2018-12-12T14:05:05.182Z,67.72
2018-12-12T14:07:34.083Z,67.27
2018-12-12T14:10:03.975Z,66.92
2018-12-12T14:12:33.897Z,66.86
2018-12-12T14:15:02.803Z,67.87
2018-12-12T14:17:31.621Z,68.10
2018-12-12T14:20:00.461Z,67.77
2018-12-12T14:22:29.280Z,67.62
2018-12-12T14:24:58.092Z,69.26
2018-12-12T14:27:27.032Z,69.36
2018-12-12T14:29:55.917Z,68.90
2018-12-12T14:32:24.773Z,70.02
2018-12-12T14:34:53.824Z,69.95
2018-12-12T14:37:22.768Z,69.71
2018-12-12T14:39:51.676Z,70.97
2018-12-12T14:42:20.613Z,71.37
2018-12-12T14:44:49.586Z,70.75
2018-12-12T14:47:18.456Z,69.96
2018-12-12T14:49:47.357Z,70.97
2018-12-12T14:52:16.177Z,70.98
2018-12-12T14:54:45.021Z,72.08
2018-12-12T14:57:13.824Z,71.35
2018-12-12T14:59:42.706Z,71.03
2018-12-12T15:02:11.597Z,71.83
2018-12-12T15:04:40.491Z,71.59
2018-12-12T15:07:09.401Z,71.80
2018-12-12T15:09:39.082Z,72.30
2018-12-12T15:12:08.109Z,72.24
2018-12-12T15:14:37.106Z,72.97
2018-12-12T15:17:06.014Z,73.43
2018-12-12T15:19:34.865Z,73.77
2018-12-12T15:22:03.858Z,73.49
2018-12-12T15:24:32.733Z,73.01
2018-12-12T15:27:01.634Z,73.69
2018-12-12T15:29:30.618Z,74.65
2018-12-12T15:31:59.444Z,73.92
2018-12-12T15:34:28.261Z,74.10
2018-12-12T15:36:58.185Z,73.83
2018-12-12T15:39:27.050Z,74.67
2018-12-12T15:41:55.874Z,73.57
2018-12-12T15:44:24.693Z,74.03
2018-12-12T15:46:53.727Z,73.46
2018-12-12T15:49:22.577Z,73.96
2018-12-12T15:51:51.552Z,73.64
2018-12-12T15:54:20.385Z,74.68
2018-12-12T15:56:49.325Z,74.14
2018-12-12T15:59:18.268Z,74.49
2018-12-12T16:01:47.481Z,73.66
2018-12-12T16:04:16.405Z,74.12
2018-12-12T16:06:45.297Z,74.19
2018-12-12T16:09:14.430Z,74.01
2018-12-12T16:11:43.380Z,74.34
2018-12-12T16:14:15.065Z,74.78
2018-12-12T16:16:44.045Z,74.65
2018-12-12T16:19:13.631Z,74.72
2018-12-12T16:21:42.654Z,75.86
2018-12-12T16:24:11.520Z,74.87
2018-12-12T16:26:40.389Z,74.79
2018-12-12T16:29:09.262Z,75.30
2018-12-12T16:31:38.130Z,75.19
2018-12-12T16:34:07.022Z,74.45
2018-12-12T16:36:39.007Z,75.07
2018-12-12T16:39:08.636Z,75.41
2018-12-12T16:41:37.557Z,75.14
2018-12-12T16:44:06.566Z,75.77
2018-12-12T16:46:52.742Z,74.53
2018-12-12T16:49:21.856Z,74.58
2018-12-12T16:51:50.729Z,75.19
2018-12-12T16:54:20.462Z,75.66
2018-12-12T16:56:49.523Z,75.44
2018-12-12T16:59:18.357Z,75.50
2018-12-12T17:01:47.214Z,75.11
2018-12-12T17:04:16.138Z,75.80
2018-12-12T17:06:44.981Z,75.50
2018-12-12T17:09:14.012Z,75.97
2018-12-12T17:11:42.877Z,75.46
2018-12-12T17:14:11.772Z,76.21
2018-12-12T17:16:40.589Z,76.29
2018-12-12T17:19:09.448Z,75.88
2018-12-12T17:21:38.377Z,76.00
2018-12-12T17:24:08.053Z,75.82
2018-12-12T17:26:36.941Z,75.53
2018-12-12T17:29:05.949Z,76.13
2018-12-12T17:31:34.824Z,76.26
2018-12-12T17:34:03.817Z,76.08
2018-12-12T17:36:32.632Z,76.35
2018-12-12T17:39:01.461Z,76.34
2018-12-12T17:41:32.140Z,76.25
2018-12-12T17:44:01.001Z,76.25
2018-12-12T17:46:30.112Z,76.44
2018-12-12T17:48:58.995Z,75.79
2018-12-12T17:51:27.877Z,76.27
2018-12-12T17:53:56.772Z,76.69
2018-12-12T17:56:25.590Z,76.60
2018-12-12T17:58:54.549Z,76.36
2018-12-12T18:01:23.462Z,76.26
2018-12-12T18:03:54.313Z,76.05
2018-12-12T18:06:28.807Z,76.22
2018-12-12T18:08:57.700Z,76.49
2018-12-12T18:11:26.581Z,76.40
2018-12-12T18:13:55.488Z,76.34
2018-12-12T18:19:35.561Z,75.78
2018-12-12T18:22:04.423Z,76.53
2018-12-12T18:24:35.245Z,76.03
2018-12-12T18:27:04.241Z,75.46
2018-12-12T18:29:33.089Z,76.29
2018-12-12T18:32:04.138Z,76.13
2018-12-12T18:34:54.734Z,75.29
2018-12-12T18:37:23.818Z,75.82
2018-12-12T18:39:52.687Z,75.81
2018-12-12T18:42:23.566Z,76.58
2018-12-12T18:44:54.557Z,76.40
2018-12-12T18:47:23.394Z,76.68
2018-12-12T18:49:52.302Z,76.47
2018-12-12T18:52:23.793Z,76.42
2018-12-12T18:54:52.685Z,76.13
2018-12-12T18:57:23.997Z,76.93
2018-12-12T18:59:52.966Z,76.96
2018-12-12T19:02:21.842Z,76.71
2018-12-12T19:07:46.296Z,76.40
2018-12-12T19:13:15.670Z,76.57
2018-12-12T19:18:43.829Z,77.23
2018-12-12T19:21:12.706Z,77.83
2018-12-12T19:23:51.796Z,77.93
2018-12-12T19:40:06.941Z,77.37
2018-12-12T19:46:08.926Z,77.33
2018-12-12T19:52:01.792Z,77.53
2018-12-12T19:54:41.235Z,77.10
2018-12-12T19:57:17.498Z,77.83
2018-12-12T20:03:21.740Z,78.09
2018-12-12T20:09:21.472Z,78.02
2018-12-12T20:15:11.475Z,77.33
2018-12-12T20:17:51.115Z,77.73
2018-12-12T20:20:37.311Z,78.19
2018-12-12T20:23:14.292Z,76.80
2018-12-12T20:25:55.837Z,76.83
2018-12-12T20:28:35.411Z,76.82
2018-12-12T20:31:12.398Z,77.79
2018-12-12T20:33:49.067Z,77.67
2018-12-12T20:36:27.986Z,76.54
2018-12-12T20:39:07.540Z,77.10
2018-12-12T20:41:56.592Z,76.37
2018-12-12T20:44:38.893Z,76.71
2018-12-12T20:47:21.405Z,76.65
2018-12-12T20:49:58.591Z,78.04
2018-12-12T20:52:34.443Z,77.35
2018-12-12T20:55:11.218Z,77.32
2018-12-12T20:57:48.171Z,77.33
2018-12-12T21:00:30.088Z,77.67
2018-12-12T21:03:05.947Z,77.44
2018-12-12T21:11:57.807Z,76.93
2018-12-12T21:17:42.500Z,76.57
2018-12-12T21:23:22.512Z,76.43
2018-12-12T21:25:51.668Z,76.12
2018-12-12T21:28:20.506Z,76.66
2018-12-12T21:30:49.388Z,77.02
2018-12-12T21:33:18.199Z,76.85
2018-12-12T21:35:47.192Z,77.00
2018-12-12T21:38:16.012Z,77.06
2018-12-12T21:40:44.949Z,76.72
2018-12-12T21:43:13.856Z,77.06
2018-12-12T21:45:42.769Z,76.79
2018-12-12T21:48:11.727Z,76.96
2018-12-12T21:50:40.612Z,76.58
2018-12-12T21:53:09.496Z,76.69
2018-12-12T21:55:38.364Z,76.48
2018-12-12T21:58:07.197Z,76.50
2018-12-12T22:00:36.176Z,76.81
2018-12-12T22:03:05.072Z,77.18
2018-12-12T22:05:33.952Z,76.89
2018-12-12T22:08:02.773Z,76.82
2018-12-12T22:10:32.554Z,76.81
2018-12-12T22:13:01.472Z,76.70
2018-12-12T22:15:31.029Z,77.20
2018-12-12T22:17:59.908Z,76.63
2018-12-12T22:20:28.774Z,76.47
2018-12-12T22:22:58.088Z,76.52
2018-12-12T22:25:27.133Z,76.44
2018-12-12T22:27:56.031Z,76.16
2018-12-12T22:30:24.839Z,77.10
2018-12-12T22:32:53.925Z,76.57
2018-12-12T22:35:22.724Z,75.57
2018-12-12T22:37:52.296Z,75.58
2018-12-12T22:40:21.156Z,76.38
2018-12-12T22:42:51.838Z,76.21
2018-12-12T22:45:21.063Z,76.00
2018-12-12T22:47:50.825Z,75.95
2018-12-12T22:50:20.046Z,76.58
2018-12-12T22:52:48.930Z,77.42
2018-12-12T22:55:17.809Z,76.66
2018-12-12T22:57:46.817Z,76.28
2018-12-12T23:00:21.076Z,75.85
2018-12-12T23:02:51.973Z,76.15
2018-12-12T23:05:20.847Z,76.39
2018-12-12T23:07:49.729Z,75.81
2018-12-12T23:10:18.561Z,76.52
2018-12-12T23:12:47.420Z,76.56
2018-12-12T23:15:16.405Z,76.86
2018-12-12T23:17:45.245Z,76.96
2018-12-12T23:20:15.215Z,76.63
2018-12-12T23:22:44.102Z,76.63
2018-12-12T23:25:12.986Z,77.33
2018-12-12T23:27:41.899Z,77.66
2018-12-12T23:30:11.323Z,77.37
2018-12-12T23:32:40.122Z,77.73
2018-12-12T23:35:10.095Z,77.34
2018-12-12T23:37:38.973Z,77.49
2018-12-12T23:40:07.913Z,77.77
2018-12-12T23:42:36.866Z,77.42
2018-12-12T23:45:06.176Z,77.23
2018-12-12T23:47:35.018Z,77.25
2018-12-12T23:50:04.061Z,77.43
2018-12-12T23:52:33.869Z,78.25
2018-12-12T23:55:05.201Z,77.62
2018-12-12T23:57:34.113Z,77.60
